sensor_id;sensor_type;location;lat;lon;timestamp;temperature;humidity
12655;DHT22;6392;44.644;11.448;2023-07-31T00:02:03;27.40;99.90
12655;DHT22;6392;44.644;11.448;2023-07-31T00:04:30;27.40;99.90
12655;DHT22;6392;44.644;11.448;2023-07-31T00:06:57;27.30;99.90
12655;DHT22;6392;44.644;11.448;2023-07-31T00:09:24;27.30;99.90
12655;DHT22;6392;44.644;11.448;2023-07-31T00:11:52;27.20;99.90
12655;DHT22;6392;44.644;11.448;2023-07-31T00:14:19;27.20;99.90
12655;DHT22;6392;44.644;11.448;2023-07-31T00:16:46;27.20;99.90
12655;DHT22;6392;44.644;11.448;2023-07-31T00:19:13;27.10;99.90
12655;DHT22;6392;44.644;11.448;2023-07-31T00:21:40;27.10;99.90
12655;DHT22;6392;44.644;11.448;2023-07-31T00:24:07;27.00;99.90
12655;DHT22;6392;44.644;11.448;2023-07-31T00:26:34;27.00;99.90
12655;DHT22;6392;44.644;11.448;2023-07-31T00:29:03;27.00;99.90
12655;DHT22;6392;44.644;11.448;2023-07-31T00:31:30;26.90;99.90
12655;DHT22;6392;44.644;11.448;2023-07-31T00:33:57;26.90;99.90
12655;DHT22;6392;44.644;11.448;2023-07-31T00:36:24;26.90;99.90
12655;DHT22;6392;44.644;11.448;2023-07-31T00:38:51;26.80;99.90
12655;DHT22;6392;44.644;11.448;2023-07-31T00:41:18;26.80;99.90
12655;DHT22;6392;44.644;11.448;2023-07-31T00:43:45;26.70;99.90
12655;DHT22;6392;44.644;11.448;2023-07-31T00:46:13;26.70;99.90
12655;DHT22;6392;44.644;11.448;2023-07-31T00:48:40;26.70;99.90
12655;DHT22;6392;44.644;11.448;2023-07-31T00:51:08;26.60;99.90
12655;DHT22;6392;44.644;11.448;2023-07-31T00:53:35;26.60;99.90
12655;DHT22;6392;44.644;11.448;2023-07-31T00:56:03;26.50;99.90
12655;DHT22;6392;44.644;11.448;2023-07-31T00:58:31;26.50;99.90
12655;DHT22;6392;44.644;11.448;2023-07-31T01:00:58;26.50;99.90
12655;DHT22;6392;44.644;11.448;2023-07-31T01:03:26;26.50;99.90
12655;DHT22;6392;44.644;11.448;2023-07-31T01:06:02;26.50;99.90
12655;DHT22;6392;44.644;11.448;2023-07-31T01:08:36;26.40;99.90
12655;DHT22;6392;44.644;11.448;2023-07-31T01:11:09;26.40;99.90
12655;DHT22;6392;44.644;11.448;2023-07-31T01:13:39;26.40;99.90
12655;DHT22;6392;44.644;11.448;2023-07-31T01:16:05;26.40;99.90
12655;DHT22;6392;44.644;11.448;2023-07-31T01:18:33;26.40;99.90
12655;DHT22;6392;44.644;11.448;2023-07-31T01:21:06;26.40;99.90
12655;DHT22;6392;44.644;11.448;2023-07-31T01:24:17;26.30;99.90
12655;DHT22;6392;44.644;11.448;2023-07-31T01:26:56;26.20;99.90
12655;DHT22;6392;44.644;11.448;2023-07-31T01:29:32;26.20;99.90
12655;DHT22;6392;44.644;11.448;2023-07-31T01:32:01;26.10;99.90
12655;DHT22;6392;44.644;11.448;2023-07-31T01:34:29;26.10;99.90
12655;DHT22;6392;44.644;11.448;2023-07-31T01:36:56;26.10;99.90
12655;DHT22;6392;44.644;11.448;2023-07-31T01:39:24;26.10;99.90
12655;DHT22;6392;44.644;11.448;2023-07-31T01:41:52;26.10;99.90
12655;DHT22;6392;44.644;11.448;2023-07-31T01:44:19;26.10;99.90
12655;DHT22;6392;44.644;11.448;2023-07-31T01:46:46;26.10;99.90
12655;DHT22;6392;44.644;11.448;2023-07-31T01:49:13;26.10;99.90
12655;DHT22;6392;44.644;11.448;2023-07-31T01:51:40;26.10;99.90
12655;DHT22;6392;44.644;11.448;2023-07-31T01:54:07;26.10;99.90
12655;DHT22;6392;44.644;11.448;2023-07-31T01:56:34;26.10;99.90
12655;DHT22;6392;44.644;11.448;2023-07-31T01:59:03;26.10;99.90
12655;DHT22;6392;44.644;11.448;2023-07-31T02:01:29;26.10;99.90
12655;DHT22;6392;44.644;11.448;2023-07-31T02:03:56;26.10;99.90
12655;DHT22;6392;44.644;11.448;2023-07-31T02:06:24;26.00;99.90
12655;DHT22;6392;44.644;11.448;2023-07-31T02:08:51;26.00;99.90
12655;DHT22;6392;44.644;11.448;2023-07-31T02:11:18;25.90;99.90
12655;DHT22;6392;44.644;11.448;2023-07-31T02:13:45;25.90;99.90
12655;DHT22;6392;44.644;11.448;2023-07-31T02:16:13;25.90;99.90
12655;DHT22;6392;44.644;11.448;2023-07-31T02:18:40;25.90;99.90
12655;DHT22;6392;44.644;11.448;2023-07-31T02:21:07;25.90;99.90
12655;DHT22;6392;44.644;11.448;2023-07-31T02:23:34;25.90;99.90
12655;DHT22;6392;44.644;11.448;2023-07-31T02:26:01;26.00;99.90
12655;DHT22;6392;44.644;11.448;2023-07-31T02:28:28;25.90;99.90
12655;DHT22;6392;44.644;11.448;2023-07-31T02:30:55;25.90;99.90
12655;DHT22;6392;44.644;11.448;2023-07-31T02:33:24;25.90;99.90
12655;DHT22;6392;44.644;11.448;2023-07-31T02:35:51;25.90;99.90
12655;DHT22;6392;44.644;11.448;2023-07-31T02:38:18;25.90;99.90
12655;DHT22;6392;44.644;11.448;2023-07-31T02:40:45;25.80;99.90
12655;DHT22;6392;44.644;11.448;2023-07-31T02:43:11;25.80;99.90
12655;DHT22;6392;44.644;11.448;2023-07-31T02:45:38;25.80;99.90
12655;DHT22;6392;44.644;11.448;2023-07-31T02:48:05;25.80;99.90
12655;DHT22;6392;44.644;11.448;2023-07-31T02:50:34;25.70;99.90
12655;DHT22;6392;44.644;11.448;2023-07-31T02:53:01;25.70;99.90
12655;DHT22;6392;44.644;11.448;2023-07-31T02:55:28;25.60;99.90
12655;DHT22;6392;44.644;11.448;2023-07-31T02:57:55;25.60;99.90
12655;DHT22;6392;44.644;11.448;2023-07-31T03:00:22;25.70;99.90
12655;DHT22;6392;44.644;11.448;2023-07-31T03:02:49;25.70;99.90
12655;DHT22;6392;44.644;11.448;2023-07-31T03:05:16;25.70;99.90
12655;DHT22;6392;44.644;11.448;2023-07-31T03:07:44;25.70;99.90
12655;DHT22;6392;44.644;11.448;2023-07-31T03:10:11;25.60;99.90
12655;DHT22;6392;44.644;11.448;2023-07-31T03:12:38;25.60;99.90
12655;DHT22;6392;44.644;11.448;2023-07-31T03:15:06;25.60;99.90
12655;DHT22;6392;44.644;11.448;2023-07-31T03:17:33;25.60;99.90
12655;DHT22;6392;44.644;11.448;2023-07-31T03:20:00;25.60;99.90
12655;DHT22;6392;44.644;11.448;2023-07-31T03:22:27;25.60;99.90
12655;DHT22;6392;44.644;11.448;2023-07-31T03:24:56;25.50;99.90
12655;DHT22;6392;44.644;11.448;2023-07-31T03:27:23;25.50;99.90
12655;DHT22;6392;44.644;11.448;2023-07-31T03:29:50;25.50;99.90
12655;DHT22;6392;44.644;11.448;2023-07-31T03:32:17;25.50;99.90
12655;DHT22;6392;44.644;11.448;2023-07-31T03:34:44;25.50;99.90
12655;DHT22;6392;44.644;11.448;2023-07-31T03:37:11;25.50;99.90
12655;DHT22;6392;44.644;11.448;2023-07-31T03:39:38;25.50;99.90
12655;DHT22;6392;44.644;11.448;2023-07-31T03:42:07;25.50;99.90
12655;DHT22;6392;44.644;11.448;2023-07-31T03:44:34;25.50;99.90
12655;DHT22;6392;44.644;11.448;2023-07-31T03:47:01;25.50;99.90
12655;DHT22;6392;44.644;11.448;2023-07-31T03:49:28;25.50;99.90
12655;DHT22;6392;44.644;11.448;2023-07-31T03:51:55;25.40;99.90
12655;DHT22;6392;44.644;11.448;2023-07-31T03:54:22;25.40;99.90
12655;DHT22;6392;44.644;11.448;2023-07-31T03:56:49;25.40;99.90
12655;DHT22;6392;44.644;11.448;2023-07-31T03:59:17;25.40;99.90
12655;DHT22;6392;44.644;11.448;2023-07-31T04:01:44;25.40;99.90
12655;DHT22;6392;44.644;11.448;2023-07-31T04:04:11;25.30;99.90
12655;DHT22;6392;44.644;11.448;2023-07-31T04:06:38;25.30;99.90
12655;DHT22;6392;44.644;11.448;2023-07-31T04:09:05;25.30;99.90
12655;DHT22;6392;44.644;11.448;2023-07-31T04:11:32;25.30;99.90
12655;DHT22;6392;44.644;11.448;2023-07-31T04:13:59;25.30;99.90
12655;DHT22;6392;44.644;11.448;2023-07-31T04:16:27;25.30;99.90
12655;DHT22;6392;44.644;11.448;2023-07-31T04:18:54;25.20;99.90
12655;DHT22;6392;44.644;11.448;2023-07-31T04:21:21;25.20;99.90
12655;DHT22;6392;44.644;11.448;2023-07-31T04:23:48;25.20;99.90
12655;DHT22;6392;44.644;11.448;2023-07-31T04:26:15;25.20;99.90
12655;DHT22;6392;44.644;11.448;2023-07-31T04:28:43;25.30;99.90
12655;DHT22;6392;44.644;11.448;2023-07-31T04:31:10;25.30;99.90
12655;DHT22;6392;44.644;11.448;2023-07-31T04:33:38;25.30;99.90
12655;DHT22;6392;44.644;11.448;2023-07-31T04:36:05;25.30;99.90
12655;DHT22;6392;44.644;11.448;2023-07-31T04:38:32;25.30;99.90
12655;DHT22;6392;44.644;11.448;2023-07-31T04:40:59;25.40;99.90
12655;DHT22;6392;44.644;11.448;2023-07-31T04:43:26;25.40;99.90
12655;DHT22;6392;44.644;11.448;2023-07-31T04:45:53;25.40;99.90
12655;DHT22;6392;44.644;11.448;2023-07-31T04:48:20;25.40;99.90
12655;DHT22;6392;44.644;11.448;2023-07-31T04:50:48;25.40;99.90
12655;DHT22;6392;44.644;11.448;2023-07-31T04:53:15;25.40;99.90
12655;DHT22;6392;44.644;11.448;2023-07-31T04:55:42;25.50;99.90
12655;DHT22;6392;44.644;11.448;2023-07-31T04:58:09;25.50;99.90
12655;DHT22;6392;44.644;11.448;2023-07-31T05:00:36;25.60;99.90
12655;DHT22;6392;44.644;11.448;2023-07-31T05:03:03;25.60;99.90
12655;DHT22;6392;44.644;11.448;2023-07-31T05:05:30;25.70;99.90
12655;DHT22;6392;44.644;11.448;2023-07-31T05:07:59;25.70;99.90
12655;DHT22;6392;44.644;11.448;2023-07-31T05:10:26;25.80;99.90
12655;DHT22;6392;44.644;11.448;2023-07-31T05:12:53;25.90;99.90
12655;DHT22;6392;44.644;11.448;2023-07-31T05:15:20;25.90;99.90
12655;DHT22;6392;44.644;11.448;2023-07-31T05:17:47;26.00;99.90
12655;DHT22;6392;44.644;11.448;2023-07-31T05:20:14;26.00;99.90
12655;DHT22;6392;44.644;11.448;2023-07-31T05:22:41;26.10;99.90
12655;DHT22;6392;44.644;11.448;2023-07-31T05:25:09;26.10;99.90
12655;DHT22;6392;44.644;11.448;2023-07-31T05:27:36;26.10;99.90
12655;DHT22;6392;44.644;11.448;2023-07-31T05:30:04;26.10;99.90
12655;DHT22;6392;44.644;11.448;2023-07-31T05:32:32;26.20;99.90
12655;DHT22;6392;44.644;11.448;2023-07-31T05:34:59;26.20;99.90
12655;DHT22;6392;44.644;11.448;2023-07-31T05:37:26;26.30;99.90
12655;DHT22;6392;44.644;11.448;2023-07-31T05:39:53;26.30;99.90
12655;DHT22;6392;44.644;11.448;2023-07-31T05:42:21;26.30;99.90
12655;DHT22;6392;44.644;11.448;2023-07-31T05:44:48;26.40;99.90
12655;DHT22;6392;44.644;11.448;2023-07-31T05:47:15;26.40;99.90
12655;DHT22;6392;44.644;11.448;2023-07-31T05:49:42;26.40;99.90
12655;DHT22;6392;44.644;11.448;2023-07-31T05:52:09;26.50;99.90
12655;DHT22;6392;44.644;11.448;2023-07-31T05:54:36;26.40;99.90
12655;DHT22;6392;44.644;11.448;2023-07-31T05:57:04;26.50;99.90
12655;DHT22;6392;44.644;11.448;2023-07-31T05:59:32;26.50;99.90
12655;DHT22;6392;44.644;11.448;2023-07-31T06:01:59;26.50;99.90
12655;DHT22;6392;44.644;11.448;2023-07-31T06:04:26;26.60;99.90
12655;DHT22;6392;44.644;11.448;2023-07-31T06:06:54;26.60;99.90
12655;DHT22;6392;44.644;11.448;2023-07-31T06:09:21;26.60;99.90
12655;DHT22;6392;44.644;11.448;2023-07-31T06:11:48;26.70;99.90
12655;DHT22;6392;44.644;11.448;2023-07-31T06:14:15;26.70;99.90
12655;DHT22;6392;44.644;11.448;2023-07-31T06:16:44;26.70;99.90
12655;DHT22;6392;44.644;11.448;2023-07-31T06:19:11;26.80;99.90
12655;DHT22;6392;44.644;11.448;2023-07-31T06:21:38;26.90;99.90
12655;DHT22;6392;44.644;11.448;2023-07-31T06:24:07;26.90;99.90
12655;DHT22;6392;44.644;11.448;2023-07-31T06:26:34;26.90;99.90
12655;DHT22;6392;44.644;11.448;2023-07-31T06:29:01;27.00;99.90
12655;DHT22;6392;44.644;11.448;2023-07-31T06:31:28;27.00;99.90
12655;DHT22;6392;44.644;11.448;2023-07-31T06:33:57;27.00;99.90
12655;DHT22;6392;44.644;11.448;2023-07-31T06:36:24;27.00;99.90
12655;DHT22;6392;44.644;11.448;2023-07-31T06:38:51;27.10;99.90
12655;DHT22;6392;44.644;11.448;2023-07-31T06:41:18;27.10;99.90
12655;DHT22;6392;44.644;11.448;2023-07-31T06:43:45;27.20;99.90
12655;DHT22;6392;44.644;11.448;2023-07-31T06:46:12;27.30;99.90
12655;DHT22;6392;44.644;11.448;2023-07-31T06:48:39;27.30;99.90
12655;DHT22;6392;44.644;11.448;2023-07-31T06:51:07;27.30;99.90
12655;DHT22;6392;44.644;11.448;2023-07-31T06:53:34;27.40;99.90
12655;DHT22;6392;44.644;11.448;2023-07-31T06:56:01;27.40;99.90
12655;DHT22;6392;44.644;11.448;2023-07-31T06:58:28;27.50;99.90
12655;DHT22;6392;44.644;11.448;2023-07-31T07:00:55;27.50;99.90
12655;DHT22;6392;44.644;11.448;2023-07-31T07:03:22;27.60;99.90
12655;DHT22;6392;44.644;11.448;2023-07-31T07:05:49;27.60;99.90
12655;DHT22;6392;44.644;11.448;2023-07-31T07:08:17;27.70;99.90
12655;DHT22;6392;44.644;11.448;2023-07-31T07:10:44;27.70;99.90
12655;DHT22;6392;44.644;11.448;2023-07-31T07:13:11;27.70;99.90
12655;DHT22;6392;44.644;11.448;2023-07-31T07:15:39;27.80;99.90
12655;DHT22;6392;44.644;11.448;2023-07-31T07:18:06;27.80;99.90
12655;DHT22;6392;44.644;11.448;2023-07-31T07:20:33;27.80;99.90
12655;DHT22;6392;44.644;11.448;2023-07-31T07:23:00;27.80;99.90
12655;DHT22;6392;44.644;11.448;2023-07-31T07:25:28;27.80;99.90
12655;DHT22;6392;44.644;11.448;2023-07-31T07:27:55;27.90;99.90
12655;DHT22;6392;44.644;11.448;2023-07-31T07:30:22;27.90;99.90
12655;DHT22;6392;44.644;11.448;2023-07-31T07:32:50;28.00;99.90
12655;DHT22;6392;44.644;11.448;2023-07-31T07:35:17;28.00;99.90
12655;DHT22;6392;44.644;11.448;2023-07-31T07:37:44;28.00;99.90
12655;DHT22;6392;44.644;11.448;2023-07-31T07:40:11;28.00;99.90
12655;DHT22;6392;44.644;11.448;2023-07-31T07:42:40;28.00;99.90
12655;DHT22;6392;44.644;11.448;2023-07-31T07:45:08;28.10;99.90
12655;DHT22;6392;44.644;11.448;2023-07-31T07:47:35;28.10;99.90
12655;DHT22;6392;44.644;11.448;2023-07-31T07:50:02;28.20;99.90
12655;DHT22;6392;44.644;11.448;2023-07-31T07:52:29;28.30;99.90
12655;DHT22;6392;44.644;11.448;2023-07-31T07:54:56;28.30;99.90
12655;DHT22;6392;44.644;11.448;2023-07-31T07:57:23;28.40;99.90
12655;DHT22;6392;44.644;11.448;2023-07-31T07:59:51;28.40;99.90
12655;DHT22;6392;44.644;11.448;2023-07-31T08:02:18;28.50;99.90
12655;DHT22;6392;44.644;11.448;2023-07-31T08:04:45;28.50;99.90
12655;DHT22;6392;44.644;11.448;2023-07-31T08:07:12;28.60;99.90
12655;DHT22;6392;44.644;11.448;2023-07-31T08:09:39;28.60;99.90
12655;DHT22;6392;44.644;11.448;2023-07-31T08:12:07;28.70;99.90
12655;DHT22;6392;44.644;11.448;2023-07-31T08:14:34;28.80;99.90
12655;DHT22;6392;44.644;11.448;2023-07-31T08:17:03;28.90;99.90
12655;DHT22;6392;44.644;11.448;2023-07-31T08:19:30;29.00;99.90
12655;DHT22;6392;44.644;11.448;2023-07-31T08:21:57;29.10;99.90
12655;DHT22;6392;44.644;11.448;2023-07-31T08:24:24;29.10;99.90
12655;DHT22;6392;44.644;11.448;2023-07-31T08:26:51;29.20;99.90
12655;DHT22;6392;44.644;11.448;2023-07-31T08:29:18;29.30;99.90
12655;DHT22;6392;44.644;11.448;2023-07-31T08:31:45;29.30;99.90
12655;DHT22;6392;44.644;11.448;2023-07-31T08:34:13;29.30;99.90
12655;DHT22;6392;44.644;11.448;2023-07-31T08:36:40;29.30;99.90
12655;DHT22;6392;44.644;11.448;2023-07-31T08:39:07;29.30;99.90
12655;DHT22;6392;44.644;11.448;2023-07-31T08:41:37;29.20;99.90
12655;DHT22;6392;44.644;11.448;2023-07-31T08:44:05;29.20;99.90
12655;DHT22;6392;44.644;11.448;2023-07-31T08:46:34;29.20;99.90
12655;DHT22;6392;44.644;11.448;2023-07-31T08:49:04;29.20;99.90
12655;DHT22;6392;44.644;11.448;2023-07-31T08:51:34;29.20;99.90
12655;DHT22;6392;44.644;11.448;2023-07-31T08:54:01;29.30;99.90
12655;DHT22;6392;44.644;11.448;2023-07-31T08:56:30;29.40;99.90
12655;DHT22;6392;44.644;11.448;2023-07-31T08:58:59;29.50;99.90
12655;DHT22;6392;44.644;11.448;2023-07-31T09:01:30;29.60;99.90
12655;DHT22;6392;44.644;11.448;2023-07-31T09:03:58;29.70;99.90
12655;DHT22;6392;44.644;11.448;2023-07-31T09:06:27;29.70;99.90
12655;DHT22;6392;44.644;11.448;2023-07-31T09:08:56;29.80;99.90
12655;DHT22;6392;44.644;11.448;2023-07-31T09:11:24;29.70;99.90
12655;DHT22;6392;44.644;11.448;2023-07-31T09:13:52;29.70;99.90
12655;DHT22;6392;44.644;11.448;2023-07-31T09:16:27;29.70;99.90
12655;DHT22;6392;44.644;11.448;2023-07-31T09:18:56;29.60;99.90
12655;DHT22;6392;44.644;11.448;2023-07-31T09:21:24;29.50;99.90
12655;DHT22;6392;44.644;11.448;2023-07-31T09:23:53;29.50;99.90
12655;DHT22;6392;44.644;11.448;2023-07-31T09:26:32;29.50;99.90
12655;DHT22;6392;44.644;11.448;2023-07-31T09:29:00;29.60;99.90
12655;DHT22;6392;44.644;11.448;2023-07-31T09:31:43;29.60;99.90
12655;DHT22;6392;44.644;11.448;2023-07-31T09:34:10;29.70;99.90
12655;DHT22;6392;44.644;11.448;2023-07-31T09:36:42;29.70;99.90
12655;DHT22;6392;44.644;11.448;2023-07-31T09:39:10;29.80;99.90
12655;DHT22;6392;44.644;11.448;2023-07-31T09:41:40;29.80;99.90
12655;DHT22;6392;44.644;11.448;2023-07-31T09:44:07;29.80;99.90
12655;DHT22;6392;44.644;11.448;2023-07-31T09:46:35;29.80;99.90
12655;DHT22;6392;44.644;11.448;2023-07-31T09:49:07;29.80;99.90
12655;DHT22;6392;44.644;11.448;2023-07-31T09:51:35;29.80;99.90
12655;DHT22;6392;44.644;11.448;2023-07-31T09:54:10;29.80;99.90
12655;DHT22;6392;44.644;11.448;2023-07-31T09:56:42;29.90;99.90
12655;DHT22;6392;44.644;11.448;2023-07-31T09:59:12;29.90;99.90
12655;DHT22;6392;44.644;11.448;2023-07-31T10:01:40;30.00;99.90
12655;DHT22;6392;44.644;11.448;2023-07-31T10:04:08;30.10;99.90
12655;DHT22;6392;44.644;11.448;2023-07-31T10:06:36;30.10;99.90
12655;DHT22;6392;44.644;11.448;2023-07-31T10:09:05;30.10;99.90
12655;DHT22;6392;44.644;11.448;2023-07-31T10:11:36;30.10;99.90
12655;DHT22;6392;44.644;11.448;2023-07-31T10:14:07;30.10;99.90
12655;DHT22;6392;44.644;11.448;2023-07-31T10:16:37;30.10;99.90
12655;DHT22;6392;44.644;11.448;2023-07-31T10:19:05;30.10;99.90
12655;DHT22;6392;44.644;11.448;2023-07-31T10:21:34;30.10;99.90
12655;DHT22;6392;44.644;11.448;2023-07-31T10:24:03;30.00;99.90
12655;DHT22;6392;44.644;11.448;2023-07-31T10:26:31;30.00;99.90
12655;DHT22;6392;44.644;11.448;2023-07-31T10:28:59;30.00;99.90
12655;DHT22;6392;44.644;11.448;2023-07-31T10:31:27;30.00;99.90
12655;DHT22;6392;44.644;11.448;2023-07-31T10:33:56;30.10;99.90
12655;DHT22;6392;44.644;11.448;2023-07-31T10:36:23;30.10;99.90
12655;DHT22;6392;44.644;11.448;2023-07-31T10:38:51;30.10;99.90
12655;DHT22;6392;44.644;11.448;2023-07-31T10:41:18;30.10;99.90
12655;DHT22;6392;44.644;11.448;2023-07-31T10:43:46;30.10;99.90
12655;DHT22;6392;44.644;11.448;2023-07-31T10:46:14;30.10;99.90
12655;DHT22;6392;44.644;11.448;2023-07-31T10:48:42;30.20;99.90
12655;DHT22;6392;44.644;11.448;2023-07-31T10:51:10;30.20;99.90
12655;DHT22;6392;44.644;11.448;2023-07-31T10:53:39;30.30;99.90
12655;DHT22;6392;44.644;11.448;2023-07-31T10:56:08;30.30;99.90
12655;DHT22;6392;44.644;11.448;2023-07-31T10:58:38;30.40;99.90
12655;DHT22;6392;44.644;11.448;2023-07-31T11:01:06;30.40;99.90
12655;DHT22;6392;44.644;11.448;2023-07-31T11:03:45;30.40;99.90
12655;DHT22;6392;44.644;11.448;2023-07-31T11:06:13;30.40;99.90
12655;DHT22;6392;44.644;11.448;2023-07-31T11:08:44;30.40;99.90
12655;DHT22;6392;44.644;11.448;2023-07-31T11:11:12;30.50;99.90
12655;DHT22;6392;44.644;11.448;2023-07-31T11:13:41;30.40;99.90
12655;DHT22;6392;44.644;11.448;2023-07-31T11:16:08;30.40;99.90
12655;DHT22;6392;44.644;11.448;2023-07-31T11:18:37;30.40;99.90
12655;DHT22;6392;44.644;11.448;2023-07-31T11:21:06;30.40;99.90
12655;DHT22;6392;44.644;11.448;2023-07-31T11:23:33;30.50;99.90
12655;DHT22;6392;44.644;11.448;2023-07-31T11:26:00;30.60;99.90
12655;DHT22;6392;44.644;11.448;2023-07-31T11:28:31;30.60;99.90
12655;DHT22;6392;44.644;11.448;2023-07-31T11:30:59;30.60;99.90
12655;DHT22;6392;44.644;11.448;2023-07-31T11:33:26;30.70;99.90
12655;DHT22;6392;44.644;11.448;2023-07-31T11:35:54;30.70;99.90
12655;DHT22;6392;44.644;11.448;2023-07-31T11:38:26;30.70;99.90
12655;DHT22;6392;44.644;11.448;2023-07-31T11:40:54;30.80;99.90
12655;DHT22;6392;44.644;11.448;2023-07-31T11:43:22;30.80;99.90
12655;DHT22;6392;44.644;11.448;2023-07-31T11:45:50;30.80;99.90
12655;DHT22;6392;44.644;11.448;2023-07-31T11:48:21;30.70;99.90
12655;DHT22;6392;44.644;11.448;2023-07-31T11:50:50;30.70;99.90
12655;DHT22;6392;44.644;11.448;2023-07-31T11:53:20;30.70;99.90
12655;DHT22;6392;44.644;11.448;2023-07-31T11:55:50;30.80;99.90
12655;DHT22;6392;44.644;11.448;2023-07-31T11:58:18;30.80;99.90
12655;DHT22;6392;44.644;11.448;2023-07-31T12:00:46;30.90;99.90
12655;DHT22;6392;44.644;11.448;2023-07-31T12:03:13;30.90;99.90
12655;DHT22;6392;44.644;11.448;2023-07-31T12:05:40;31.00;99.90
12655;DHT22;6392;44.644;11.448;2023-07-31T12:08:11;31.00;99.90
12655;DHT22;6392;44.644;11.448;2023-07-31T12:10:39;31.00;99.90
12655;DHT22;6392;44.644;11.448;2023-07-31T12:13:09;31.10;99.90
12655;DHT22;6392;44.644;11.448;2023-07-31T12:15:40;31.20;99.90
12655;DHT22;6392;44.644;11.448;2023-07-31T12:18:09;31.30;99.90
12655;DHT22;6392;44.644;11.448;2023-07-31T12:20:41;31.40;99.90
12655;DHT22;6392;44.644;11.448;2023-07-31T12:23:13;31.50;99.90
12655;DHT22;6392;44.644;11.448;2023-07-31T12:25:41;31.50;99.90
12655;DHT22;6392;44.644;11.448;2023-07-31T12:28:09;31.60;99.90
12655;DHT22;6392;44.644;11.448;2023-07-31T12:30:39;31.70;99.90
12655;DHT22;6392;44.644;11.448;2023-07-31T12:33:07;31.80;99.90
12655;DHT22;6392;44.644;11.448;2023-07-31T12:35:41;31.90;99.90
12655;DHT22;6392;44.644;11.448;2023-07-31T12:38:08;31.90;99.90
12655;DHT22;6392;44.644;11.448;2023-07-31T12:40:37;31.80;99.90
12655;DHT22;6392;44.644;11.448;2023-07-31T12:43:05;31.70;99.90
12655;DHT22;6392;44.644;11.448;2023-07-31T12:45:34;31.70;99.90
12655;DHT22;6392;44.644;11.448;2023-07-31T12:48:01;31.70;99.90
12655;DHT22;6392;44.644;11.448;2023-07-31T12:50:28;31.70;99.90
12655;DHT22;6392;44.644;11.448;2023-07-31T12:52:55;31.70;99.90
12655;DHT22;6392;44.644;11.448;2023-07-31T12:55:23;31.70;99.90
12655;DHT22;6392;44.644;11.448;2023-07-31T12:57:50;31.70;99.90
12655;DHT22;6392;44.644;11.448;2023-07-31T13:00:18;31.70;99.90
12655;DHT22;6392;44.644;11.448;2023-07-31T13:02:46;31.70;99.90
12655;DHT22;6392;44.644;11.448;2023-07-31T13:05:13;31.70;99.90
12655;DHT22;6392;44.644;11.448;2023-07-31T13:07:40;31.90;99.90
12655;DHT22;6392;44.644;11.448;2023-07-31T13:10:08;31.90;99.90
12655;DHT22;6392;44.644;11.448;2023-07-31T13:12:35;32.10;99.90
12655;DHT22;6392;44.644;11.448;2023-07-31T13:15:04;32.40;99.90
12655;DHT22;6392;44.644;11.448;2023-07-31T13:17:31;32.50;99.90
12655;DHT22;6392;44.644;11.448;2023-07-31T13:20:00;32.50;99.90
12655;DHT22;6392;44.644;11.448;2023-07-31T13:22:27;32.50;99.90
12655;DHT22;6392;44.644;11.448;2023-07-31T13:24:54;32.40;99.90
12655;DHT22;6392;44.644;11.448;2023-07-31T13:27:21;32.60;99.90
12655;DHT22;6392;44.644;11.448;2023-07-31T13:29:50;32.70;99.90
12655;DHT22;6392;44.644;11.448;2023-07-31T13:32:17;32.70;99.90
12655;DHT22;6392;44.644;11.448;2023-07-31T13:34:45;32.80;99.90
12655;DHT22;6392;44.644;11.448;2023-07-31T13:37:14;32.80;99.90
12655;DHT22;6392;44.644;11.448;2023-07-31T13:39:41;32.80;99.90
12655;DHT22;6392;44.644;11.448;2023-07-31T13:42:09;32.80;99.90
12655;DHT22;6392;44.644;11.448;2023-07-31T13:44:38;32.70;99.90
12655;DHT22;6392;44.644;11.448;2023-07-31T13:47:05;32.70;99.90
12655;DHT22;6392;44.644;11.448;2023-07-31T13:49:32;32.80;99.90
12655;DHT22;6392;44.644;11.448;2023-07-31T13:52:00;33.00;99.90
12655;DHT22;6392;44.644;11.448;2023-07-31T13:54:28;33.10;99.90
12655;DHT22;6392;44.644;11.448;2023-07-31T13:56:56;33.10;99.90
12655;DHT22;6392;44.644;11.448;2023-07-31T13:59:23;33.20;99.90
12655;DHT22;6392;44.644;11.448;2023-07-31T14:01:50;33.30;99.90
12655;DHT22;6392;44.644;11.448;2023-07-31T14:04:17;33.40;99.90
12655;DHT22;6392;44.644;11.448;2023-07-31T14:06:45;33.40;99.90
12655;DHT22;6392;44.644;11.448;2023-07-31T14:09:13;33.70;99.90
12655;DHT22;6392;44.644;11.448;2023-07-31T14:11:42;33.90;99.90
12655;DHT22;6392;44.644;11.448;2023-07-31T14:14:09;33.90;99.90
12655;DHT22;6392;44.644;11.448;2023-07-31T14:16:36;33.90;99.90
12655;DHT22;6392;44.644;11.448;2023-07-31T14:19:03;33.90;99.90
12655;DHT22;6392;44.644;11.448;2023-07-31T14:21:30;34.00;99.90
12655;DHT22;6392;44.644;11.448;2023-07-31T14:23:57;34.00;99.90
12655;DHT22;6392;44.644;11.448;2023-07-31T14:26:24;34.00;99.90
12655;DHT22;6392;44.644;11.448;2023-07-31T14:28:53;34.00;99.90
12655;DHT22;6392;44.644;11.448;2023-07-31T14:31:20;34.00;99.90
12655;DHT22;6392;44.644;11.448;2023-07-31T14:33:46;33.90;99.90
12655;DHT22;6392;44.644;11.448;2023-07-31T14:36:14;33.80;99.90
12655;DHT22;6392;44.644;11.448;2023-07-31T14:38:41;33.60;99.90
12655;DHT22;6392;44.644;11.448;2023-07-31T14:41:07;33.60;99.90
12655;DHT22;6392;44.644;11.448;2023-07-31T14:43:34;33.60;99.90
12655;DHT22;6392;44.644;11.448;2023-07-31T14:46:03;33.50;99.90
12655;DHT22;6392;44.644;11.448;2023-07-31T14:48:30;33.50;99.90
12655;DHT22;6392;44.644;11.448;2023-07-31T14:50:57;33.50;99.90
12655;DHT22;6392;44.644;11.448;2023-07-31T14:53:24;33.60;99.90
12655;DHT22;6392;44.644;11.448;2023-07-31T14:55:51;33.50;99.90
12655;DHT22;6392;44.644;11.448;2023-07-31T14:58:18;33.50;99.90
12655;DHT22;6392;44.644;11.448;2023-07-31T15:00:45;33.60;99.90
12655;DHT22;6392;44.644;11.448;2023-07-31T15:03:13;33.80;99.90
12655;DHT22;6392;44.644;11.448;2023-07-31T15:05:40;33.90;99.90
12655;DHT22;6392;44.644;11.448;2023-07-31T15:08:07;34.00;99.90
12655;DHT22;6392;44.644;11.448;2023-07-31T15:10:34;34.20;99.90
12655;DHT22;6392;44.644;11.448;2023-07-31T15:13:01;34.40;99.90
12655;DHT22;6392;44.644;11.448;2023-07-31T15:15:28;34.50;99.90
12655;DHT22;6392;44.644;11.448;2023-07-31T15:17:56;34.40;99.90
12655;DHT22;6392;44.644;11.448;2023-07-31T15:20:24;34.60;99.90
12655;DHT22;6392;44.644;11.448;2023-07-31T15:22:51;34.80;99.90
12655;DHT22;6392;44.644;11.448;2023-07-31T15:25:18;35.00;99.90
12655;DHT22;6392;44.644;11.448;2023-07-31T15:27:45;35.10;99.90
12655;DHT22;6392;44.644;11.448;2023-07-31T15:30:12;35.20;99.90
12655;DHT22;6392;44.644;11.448;2023-07-31T15:32:39;35.20;99.90
12655;DHT22;6392;44.644;11.448;2023-07-31T15:35:07;35.20;99.90